Time;durP1;ratioP1;P1;durP2;ratioP2;P2;SDS_P1;SDS_P2;PMS_P1;PMS_P2;Temp;Humidity;BMP_temperature;BMP_pressure;BME280_temperature;BME280_humidity;BME280_pressure;Samples;Min_cycle;Max_cycle;Signal;HPM_P1;HPM_P2
2022/12/16 00:00:44;;;;;;;;;;;;;;;25.15;41.27;92636.09;4951692;28;7032;-70
2022/12/16 00:03:12;;;;;;;;;;;;;;;25.15;41.24;92627.09;4960520;28;6844;-70
2022/12/16 00:05:38;;;;;;;;;;;;;;;25.15;42.06;92627.09;4952584;28;7203;-69
2022/12/16 00:08:36;;;;;;;;;;;;;;;25.16;40.92;92623.81;4955910;28;7655;-70
2022/12/16 00:11:08;;;;;;;;;;;;;;;25.16;41.13;92625.84;4884840;29;7257;-70
2022/12/16 00:13:36;;;;;;;;;;;;;;;25.14;41.17;92611.91;4893369;29;7077;-71
2022/12/16 00:16:13;;;;;;;;;;;;;;;25.14;41.13;92620.16;4872953;29;7279;-70
2022/12/16 00:18:48;;;;;;;;;;;;;;;25.14;41.22;92614.66;4872514;29;9785;-70
2022/12/16 00:21:28;;;;;;;;;;;;;;;25.14;41.17;92620.84;4878230;29;7259;-71
2022/12/16 00:24:03;;;;;;;;;;;;;;;25.13;41.83;92618.66;4879522;29;7287;-70
2022/12/16 00:26:52;;;;;;;;;;;;;;;25.15;41.91;92611.34;4892930;29;7485;-70
2022/12/16 00:29:18;;;;;;;;;;;;;;;25.15;41.53;92611.34;4877599;29;8898;-71
2022/12/16 00:31:46;;;;;;;;;;;;;;;25.15;41.12;92607.84;4893450;29;9096;-70
2022/12/16 00:34:16;;;;;;;;;;;;;;;25.13;40.74;92613.91;4886640;29;9283;-70
2022/12/16 00:36:43;;;;;;;;;;;;;;;25.14;40.85;92617.41;4866867;29;7288;-70
2022/12/16 00:39:20;;;;;;;;;;;;;;;25.13;41.04;92624.16;4872539;29;7254;-71
2022/12/16 00:41:57;;;;;;;;;;;;;;;25.12;40.71;92617.94;4895660;29;7303;-69
2022/12/16 00:44:34;;;;;;;;;;;;;;;25.12;40.94;92608.97;4891419;29;7883;-70
2022/12/16 00:47:07;;;;;;;;;;;;;;;25.11;41.25;92616.47;4902399;28;9040;-70
2022/12/16 00:49:35;;;;;;;;;;;;;;;25.11;41.39;92635.72;4959761;28;7321;-70
2022/12/16 00:52:08;;;;;;;;;;;;;;;25.10;41.56;92628.75;4969727;28;8484;-70
2022/12/16 00:54:37;;;;;;;;;;;;;;;25.11;41.45;92632.97;4954028;28;8686;-70
2022/12/16 00:57:03;;;;;;;;;;;;;;;25.10;41.02;92634.25;4946784;28;7121;-71
2022/12/16 00:59:29;;;;;;;;;;;;;;;25.10;41.34;92639.75;4971867;28;7136;-70
2022/12/16 01:01:55;;;;;;;;;;;;;;;25.11;41.19;92651.50;4944790;28;7120;-69
2022/12/16 01:04:25;;;;;;;;;;;;;;;25.11;41.22;92643.25;4968201;28;6852;-70
2022/12/16 01:07:00;;;;;;;;;;;;;;;25.11;41.06;92641.22;4959987;28;8397;-70
2022/12/16 01:09:35;;;;;;;;;;;;;;;25.11;41.56;92643.25;4966590;28;7281;-71
2022/12/16 01:12:10;;;;;;;;;;;;;;;25.11;41.03;92654.97;4955754;28;9411;-70
2022/12/16 01:14:36;;;;;;;;;;;;;;;25.11;41.34;92665.25;4952964;28;8985;-70
2022/12/16 01:17:10;;;;;;;;;;;;;;;25.11;40.90;92670.75;4955718;28;7205;-70
2022/12/16 01:19:49;;;;;;;;;;;;;;;25.11;41.11;92674.25;4955486;28;7269;-71
2022/12/16 01:22:25;;;;;;;;;;;;;;;25.11;41.06;92676.25;4955380;28;7431;-70
2022/12/16 01:25:04;;;;;;;;;;;;;;;25.10;40.91;92680.31;4965191;28;9439;-71
2022/12/16 01:27:38;;;;;;;;;;;;;;;25.11;41.25;92676.25;4941960;28;7060;-70
2022/12/16 01:30:05;;;;;;;;;;;;;;;25.11;41.11;92676.25;4969812;28;7032;-70
2022/12/16 01:32:40;;;;;;;;;;;;;;;25.09;41.79;92692.56;4973138;28;9279;-70
2022/12/16 01:35:30;;;;;;;;;;;;;;;25.09;40.78;92695.31;4943385;28;9327;-71
2022/12/16 01:38:08;;;;;;;;;;;;;;;25.09;40.65;92693.31;4968545;28;7080;-71
2022/12/16 01:40:47;;;;;;;;;;;;;;;25.09;41.69;92689.81;4965898;28;7888;-70
2022/12/16 01:43:13;;;;;;;;;;;;;;;25.08;41.32;92683.59;4979831;28;7128;-71
2022/12/16 01:45:53;;;;;;;;;;;;;;;25.09;40.76;92689.81;4968738;28;7100;-71
2022/12/16 01:48:40;;;;;;;;;;;;;;;25.09;41.57;92706.34;4942990;28;7022;-71
2022/12/16 01:51:33;;;;;;;;;;;;;;;25.10;41.16;92707.81;4972301;28;7290;-71
2022/12/16 01:54:08;;;;;;;;;;;;;;;25.09;41.53;92714.59;4956005;28;7270;-70
2022/12/16 01:57:08;;;;;;;;;;;;;;;25.09;41.24;92722.84;4952635;28;7051;-70
2022/12/16 01:59:40;;;;;;;;;;;;;;;25.08;40.99;92716.59;4905974;29;7043;-70
2022/12/16 02:02:07;;;;;;;;;;;;;;;25.09;41.15;92722.84;4907445;29;7306;-70
2022/12/16 02:04:33;;;;;;;;;;;;;;;25.09;40.55;92725.59;4908414;29;7090;-70
2022/12/16 02:07:21;;;;;;;;;;;;;;;25.09;41.12;92720.09;4886758;29;7222;-70
2022/12/16 02:10:04;;;;;;;;;;;;;;;25.09;41.66;92720.81;4893468;29;9399;-70
2022/12/16 02:13:09;;;;;;;;;;;;;;;25.10;40.99;92724.31;4896954;29;7231;-70
2022/12/16 02:16:01;;;;;;;;;;;;;;;25.09;41.73;92725.59;4893564;29;7264;-70
2022/12/16 02:18:40;;;;;;;;;;;;;;;25.08;41.61;92719.34;4908364;29;7247;-70
2022/12/16 02:21:45;;;;;;;;;;;;;;;25.08;41.45;92721.34;4908198;29;7031;-70
2022/12/16 02:24:46;;;;;;;;;;;;;;;25.07;40.73;92719.91;4821295;29;7340;-70
2022/12/16 02:27:27;;;;;;;;;;;;;;;25.08;41.48;92722.09;4787051;29;7237;-70
2022/12/16 02:30:08;;;;;;;;;;;;;;;25.09;41.11;92723.56;4779214;29;7417;-71
2022/12/16 02:32:58;;;;;;;;;;;;;;;25.09;40.61;92723.56;4786271;30;9414;-71
2022/12/16 02:36:05;;;;;;;;;;;;;;;25.10;40.94;92732.56;4797967;29;7245;-70
2022/12/16 02:38:48;;;;;;;;;;;;;;;25.11;41.17;92728.53;4776452;30;7054;-70
2022/12/16 02:42:03;;;;;;;;;;;;;;;25.10;41.26;92740.81;4768052;29;7627;-69
2022/12/16 02:45:03;;;;;;;;;;;;;;;25.09;41.01;92744.84;4779189;30;7200;-70
2022/12/16 02:47:38;;;;;;;;;;;;;;;25.09;41.56;92740.09;4745683;30;7097;-71
2022/12/16 02:50:32;;;;;;;;;;;;;;;25.09;40.91;92747.59;4768264;30;9052;-71
2022/12/16 02:53:13;;;;;;;;;;;;;;;25.09;41.19;92753.09;4779975;30;7134;-70
2022/12/16 02:56:30;;;;;;;;;;;;;;;25.08;40.54;92760.59;4753428;30;7178;-70
2022/12/16 02:59:05;;;;;;;;;;;;;;;25.06;41.69;92760.41;4769999;29;7148;-70
2022/12/16 03:01:58;;;;;;;;;;;;;;;25.08;40.89;92766.09;4803885;29;7218;-71
2022/12/16 03:08:07;;;;;;;;;;;;;;;25.09;41.46;92784.09;4837639;29;7066;-72
2022/12/16 03:10:55;;;;;;;;;;;;;;;25.10;41.27;92776.59;4825459;29;6997;-71
2022/12/16 03:13:40;;;;;;;;;;;;;;;25.11;40.93;92767.03;4946680;28;10740;-70
2022/12/16 03:16:38;;;;;;;;;;;;;;;25.11;40.55;92769.78;4969745;28;9167;-70
2022/12/16 03:19:18;;;;;;;;;;;;;;;25.10;40.61;92773.84;4885307;29;9337;-71
2022/12/16 03:22:21;;;;;;;;;;;;;;;25.11;41.15;92780.78;4895938;29;8845;-70
2022/12/16 03:25:06;;;;;;;;;;;;;;;25.11;40.86;92787.03;4823820;29;7219;-71
2022/12/16 03:28:01;;;;;;;;;;;;;;;25.11;40.84;92786.28;4844453;29;9386;-71
2022/12/16 03:30:39;;;;;;;;;;;;;;;25.10;41.26;92790.34;4808023;29;7374;-71
2022/12/16 03:33:25;;;;;;;;;;;;;;;25.10;40.80;92802.06;4821124;29;7245;-71
2022/12/16 03:36:23;;;;;;;;;;;;;;;25.10;40.79;92795.84;4799072;29;9037;-71
2022/12/16 03:39:03;;;;;;;;;;;;;;;25.10;41.34;92787.59;4732722;30;7031;-71
2022/12/16 03:41:50;;;;;;;;;;;;;;;25.08;40.84;92796.38;4724793;30;7298;-71
2022/12/16 03:44:29;;;;;;;;;;;;;;;25.10;41.16;92802.06;4742903;30;7266;-71
2022/12/16 03:47:09;;;;;;;;;;;;;;;25.10;41.44;92796.56;4731553;30;7295;-72
2022/12/16 03:49:46;;;;;;;;;;;;;;;25.11;41.00;92800.78;4738513;30;7181;-71
2022/12/16 03:52:12;;;;;;;;;;;;;;;25.11;40.90;92803.53;4731458;30;10485;-71
2022/12/16 03:54:46;;;;;;;;;;;;;;;25.10;40.60;92807.56;4730044;30;7973;-72
2022/12/16 03:57:17;;;;;;;;;;;;;;;25.10;40.98;92806.84;4754857;30;7277;-71
2022/12/16 03:59:42;;;;;;;;;;;;;;;25.10;41.16;92806.84;4813072;29;8776;-71
2022/12/16 04:02:09;;;;;;;;;;;;;;;25.09;41.19;92814.34;4806085;29;7052;-71
2022/12/16 04:04:40;;;;;;;;;;;;;;;25.09;41.44;92819.84;4821095;29;8222;-72
2022/12/16 04:07:36;;;;;;;;;;;;;;;25.11;40.99;92824.81;4851837;29;7507;-71
2022/12/16 04:10:05;;;;;;;;;;;;;;;25.11;40.99;92830.31;4800958;29;7292;-72
2022/12/16 04:24:28;;;;;;;;;;;;;;;25.10;41.15;92848.13;4875954;29;10626;-72
2022/12/16 04:30:17;;;;;;;;;;;;;;;25.10;40.80;92856.38;4879660;29;8253;-72
2022/12/16 04:34:24;;;;;;;;;;;;;;;25.10;41.23;92856.38;4874586;29;7435;-71
